Time;durP1;ratioP1;P1;durP2;ratioP2;P2;SDS_P1;SDS_P2;PMS_P1;PMS_P2;Temp;Humidity;BMP_temperature;BMP_pressure;BME280_temperature;BME280_humidity;BME280_pressure;Samples;Min_cycle;Max_cycle;Signal;HPM_P1;HPM_P2
2023/03/14 00:02:18;;;;;;;;;;;;;;;2.99;72.67;101031.41;5111019;27;19918;-70
2023/03/14 00:04:43;;;;;;;;;;;;;;;2.73;73.19;101015.91;5111113;27;20342;-67
2023/03/14 00:07:10;;;;;;;;;;;;;;;2.53;74.10;101016.91;5111378;27;19943;-72
2023/03/14 00:09:35;;;;;;;;;;;;;;;2.68;74.08;101012.13;5114879;27;19946;-70
2023/03/14 00:12:02;;;;;;;;;;;;;;;2.81;73.03;101011.38;5111463;27;19916;-67
2023/03/14 00:14:28;;;;;;;;;;;;;;;3.01;72.50;101007.81;5115111;27;19927;-66
2023/03/14 00:16:53;;;;;;;;;;;;;;;3.15;72.04;101008.84;5111446;27;20361;-68
2023/03/14 00:19:18;;;;;;;;;;;;;;;3.26;71.59;101009.66;5111119;27;19911;-67
2023/03/14 00:21:44;;;;;;;;;;;;;;;3.11;71.10;101011.94;5111297;27;20540;-69
2023/03/14 00:24:09;;;;;;;;;;;;;;;2.85;72.57;101009.97;5110989;27;19941;-69
2023/03/14 00:26:34;;;;;;;;;;;;;;;2.69;73.72;101006.25;5111520;27;19918;-68
2023/03/14 00:29:00;;;;;;;;;;;;;;;2.70;74.17;101005.44;5110729;27;20006;-68
2023/03/14 00:31:25;;;;;;;;;;;;;;;2.74;74.27;101004.03;5110741;27;19919;-70
2023/03/14 00:33:51;;;;;;;;;;;;;;;2.42;75.22;101008.41;5110965;27;19911;-67
2023/03/14 00:36:17;;;;;;;;;;;;;;;2.26;76.64;101015.63;5111186;27;19918;-69
2023/03/14 00:38:43;;;;;;;;;;;;;;;2.08;77.01;101015.03;5111040;27;19911;-65
2023/03/14 00:41:10;;;;;;;;;;;;;;;1.87;78.61;101004.03;5099414;28;19914;-68
2023/03/14 00:43:35;;;;;;;;;;;;;;;1.63;79.70;101002.97;5118408;27;19919;-65
2023/03/14 00:46:01;;;;;;;;;;;;;;;1.13;82.25;101007.44;5135397;27;20296;-70
2023/03/14 00:48:26;;;;;;;;;;;;;;;0.86;84.24;101008.56;5135697;27;20367;-67
2023/03/14 00:50:53;;;;;;;;;;;;;;;0.84;84.64;101006.66;5125161;27;19916;-71
2023/03/14 00:53:18;;;;;;;;;;;;;;;0.70;85.13;101006.38;5132065;27;19911;-66
2023/03/14 00:55:44;;;;;;;;;;;;;;;0.71;85.38;100987.84;5135476;27;19934;-66
2023/03/14 00:58:10;;;;;;;;;;;;;;;0.40;86.74;100997.91;5135535;27;19907;-69
2023/03/14 01:00:35;;;;;;;;;;;;;;;0.25;88.06;100994.94;5121057;27;20031;-67
2023/03/14 01:03:01;;;;;;;;;;;;;;;0.31;87.91;100994.56;5135390;27;20396;-65
2023/03/14 01:05:27;;;;;;;;;;;;;;;0.48;87.35;100984.19;5135080;27;19934;-69
2023/03/14 01:07:52;;;;;;;;;;;;;;;0.44;87.26;100987.25;5134992;27;19972;-69
2023/03/14 01:10:17;;;;;;;;;;;;;;;0.38;87.15;100979.09;5134929;27;19935;-65
2023/03/14 01:12:43;;;;;;;;;;;;;;;0.50;87.42;100988.53;5135346;27;19917;-65
2023/03/14 01:15:08;;;;;;;;;;;;;;;0.62;86.54;100976.88;5134724;27;19941;-72
2023/03/14 01:17:34;;;;;;;;;;;;;;;0.77;85.74;100974.72;5135197;27;19915;-72
2023/03/14 01:19:59;;;;;;;;;;;;;;;0.92;85.00;100962.41;5135578;27;19916;-68
2023/03/14 01:22:25;;;;;;;;;;;;;;;0.95;84.28;100968.66;5135217;27;19915;-72
2023/03/14 01:24:50;;;;;;;;;;;;;;;0.89;84.53;100964.72;5134983;27;19918;-66
2023/03/14 01:27:15;;;;;;;;;;;;;;;0.90;85.06;100963.97;5135406;27;19911;-68
2023/03/14 01:29:40;;;;;;;;;;;;;;;0.98;84.96;100970.56;5135097;27;19983;-65
2023/03/14 01:32:06;;;;;;;;;;;;;;;1.06;84.47;100964.47;5116834;27;20006;-67
2023/03/14 01:34:31;;;;;;;;;;;;;;;1.15;83.99;100965.97;5135370;27;19919;-67
2023/03/14 01:36:56;;;;;;;;;;;;;;;1.24;83.52;100969.28;5135102;27;19977;-67
2023/03/14 01:39:21;;;;;;;;;;;;;;;1.39;81.81;100957.81;5135082;27;19918;-67
2023/03/14 01:41:47;;;;;;;;;;;;;;;1.57;79.33;100957.53;5134748;27;19921;-66
2023/03/14 01:44:12;;;;;;;;;;;;;;;1.70;78.17;100952.66;5134999;27;19946;-66
2023/03/14 01:46:38;;;;;;;;;;;;;;;1.86;76.66;100951.38;5135030;27;20053;-68
2023/03/14 01:49:04;;;;;;;;;;;;;;;1.90;75.61;100945.72;5134944;27;19994;-66
2023/03/14 01:51:29;;;;;;;;;;;;;;;1.96;75.39;100946.22;5134975;27;20001;-69
2023/03/14 01:54:00;;;;;;;;;;;;;;;2.08;75.43;100939.56;5134728;27;19918;-68
2023/03/14 01:56:25;;;;;;;;;;;;;;;2.15;74.47;100940.03;5134952;27;19912;-67
2023/03/14 01:58:51;;;;;;;;;;;;;;;2.06;74.52;100933.44;5134231;27;19923;-68
2023/03/14 02:01:19;;;;;;;;;;;;;;;2.13;74.35;100932.28;5134614;27;19915;-69
2023/03/14 02:03:48;;;;;;;;;;;;;;;2.07;74.44;100941.97;5134561;27;19987;-72
2023/03/14 02:06:14;;;;;;;;;;;;;;;2.11;73.81;100931.25;5134678;27;19954;-69
2023/03/14 02:08:39;;;;;;;;;;;;;;;1.98;73.16;100933.59;5134271;27;19912;-65
2023/03/14 02:11:07;;;;;;;;;;;;;;;1.88;73.57;100939.63;5134073;27;19912;-65
2023/03/14 02:13:32;;;;;;;;;;;;;;;1.89;74.40;100933.75;5134446;27;19915;-65
2023/03/14 02:15:57;;;;;;;;;;;;;;;1.92;74.35;100937.44;5134246;27;20289;-67
2023/03/14 02:18:23;;;;;;;;;;;;;;;1.99;72.56;100940.47;5134709;27;19923;-65
2023/03/14 02:20:56;;;;;;;;;;;;;;;1.82;73.48;100940.03;5134113;27;19912;-68
2023/03/14 02:23:40;;;;;;;;;;;;;;;1.94;73.84;100940.09;5134407;27;19918;-70
2023/03/14 02:26:11;;;;;;;;;;;;;;;2.00;72.67;100932.94;5134222;27;19915;-65
2023/03/14 02:28:36;;;;;;;;;;;;;;;1.96;73.02;100936.03;5133830;27;20282;-65
2023/03/14 02:31:02;;;;;;;;;;;;;;;1.99;72.79;100931.16;5133806;27;19968;-65
2023/03/14 02:33:27;;;;;;;;;;;;;;;1.91;74.04;100943.31;5134133;27;19912;-69
2023/03/14 02:35:52;;;;;;;;;;;;;;;1.55;75.90;100947.22;5133818;27;19911;-69
2023/03/14 02:38:24;;;;;;;;;;;;;;;1.50;76.58;100945.09;5134069;27;19919;-66
2023/03/14 02:40:50;;;;;;;;;;;;;;;1.29;77.40;100945.13;5133959;27;19922;-74
2023/03/14 02:43:16;;;;;;;;;;;;;;;0.96;78.69;100942.47;5133650;27;19919;-70
2023/03/14 02:45:43;;;;;;;;;;;;;;;0.92;79.58;100947.16;5133709;27;19918;-66
2023/03/14 02:48:13;;;;;;;;;;;;;;;1.03;77.59;100931.16;5133719;27;20319;-68
2023/03/14 02:50:38;;;;;;;;;;;;;;;1.11;77.30;100937.75;5133650;27;20006;-72
2023/03/14 02:53:04;;;;;;;;;;;;;;;1.12;76.68;100931.00;5133499;27;20017;-73
2023/03/14 02:55:29;;;;;;;;;;;;;;;0.98;77.70;100926.47;5133553;27;19922;-72
2023/03/14 02:57:54;;;;;;;;;;;;;;;0.80;78.26;100927.59;5133552;27;19915;-68
2023/03/14 03:00:20;;;;;;;;;;;;;;;0.50;79.48;100935.19;5113904;27;19916;-73
2023/03/14 03:02:45;;;;;;;;;;;;;;;0.05;81.74;100921.22;5133520;27;20361;-67
2023/03/14 03:05:11;;;;;;;;;;;;;;;-0.12;83.36;100918.13;5132767;27;19907;-69
2023/03/14 03:07:36;;;;;;;;;;;;;;;-0.31;84.69;100913.09;5133449;27;19911;-69
2023/03/14 03:10:01;;;;;;;;;;;;;;;-0.40;85.43;100917.34;5133155;27;19941;-71
2023/03/14 03:12:27;;;;;;;;;;;;;;;-0.47;86.52;100917.56;5133066;27;20445;-69
2023/03/14 03:14:52;;;;;;;;;;;;;;;-0.47;86.78;100926.09;5133291;27;19918;-69
2023/03/14 03:17:17;;;;;;;;;;;;;;;-0.49;86.90;100922.50;5133674;27;20288;-69
2023/03/14 03:19:42;;;;;;;;;;;;;;;-0.75;88.52;100927.81;5133156;27;20006;-72
2023/03/14 03:22:08;;;;;;;;;;;;;;;-0.97;89.67;100925.88;5133238;27;20409;-66
2023/03/14 03:24:33;;;;;;;;;;;;;;;-1.04;90.58;100933.69;5133118;27;19911;-70
2023/03/14 03:26:58;;;;;;;;;;;;;;;-1.23;91.94;100926.94;5133002;27;20292;-66
2023/03/14 03:29:24;;;;;;;;;;;;;;;-1.32;92.64;100926.09;5132826;27;20296;-66
2023/03/14 03:31:49;;;;;;;;;;;;;;;-1.50;93.03;100925.28;5132480;27;19927;-69
2023/03/14 03:34:14;;;;;;;;;;;;;;;-1.51;94.06;100929.47;5132845;27;19915;-67
2023/03/14 03:36:40;;;;;;;;;;;;;;;-1.67;95.69;100926.25;5132911;27;19976;-70
2023/03/14 03:39:05;;;;;;;;;;;;;;;-1.52;95.58;100935.28;5114314;27;19921;-70
2023/03/14 03:41:31;;;;;;;;;;;;;;;-1.35;94.72;100931.75;5132685;27;19911;-67
2023/03/14 03:43:56;;;;;;;;;;;;;;;-1.33;94.39;100929.38;5132522;27;20452;-68
2023/03/14 03:46:22;;;;;;;;;;;;;;;-1.30;94.11;100927.13;5132709;27;19988;-66
2023/03/14 03:48:47;;;;;;;;;;;;;;;-1.39;94.47;100932.22;5132848;27;19971;-67
2023/03/14 03:51:13;;;;;;;;;;;;;;;-1.24;94.35;100937.81;5132153;27;19915;-68
2023/03/14 03:53:39;;;;;;;;;;;;;;;-1.16;93.68;100929.28;5132513;27;20002;-67
2023/03/14 03:56:04;;;;;;;;;;;;;;;-1.29;94.91;100931.44;5132293;27;19957;-70
2023/03/14 03:58:29;;;;;;;;;;;;;;;-1.22;94.33;100926.19;5132138;27;19918;-65
2023/03/14 04:00:55;;;;;;;;;;;;;;;-1.12;94.06;100929.53;5114078;27;19913;-65
2023/03/14 04:03:20;;;;;;;;;;;;;;;-0.95;93.08;100928.56;5132678;27;19918;-69
2023/03/14 04:05:45;;;;;;;;;;;;;;;-1.00;92.72;100929.03;5132079;27;20356;-69
2023/03/14 04:08:11;;;;;;;;;;;;;;;-0.73;91.40;100928.84;5132349;27;19942;-65
2023/03/14 04:10:36;;;;;;;;;;;;;;;-0.78;89.63;100925.88;5132279;27;19960;-66
2023/03/14 04:13:02;;;;;;;;;;;;;;;-0.71;89.91;100930.75;5132182;27;20361;-67
2023/03/14 04:15:28;;;;;;;;;;;;;;;-0.51;89.46;100927.44;5132183;27;20432;-66
2023/03/14 04:17:58;;;;;;;;;;;;;;;-0.50;88.70;100928.31;5131154;27;20350;-67
2023/03/14 04:20:23;;;;;;;;;;;;;;;-0.66;90.24;100933.72;5131956;27;19919;-67
2023/03/14 04:22:49;;;;;;;;;;;;;;;-0.60;89.77;100929.16;5132211;27;20682;-67
2023/03/14 04:25:16;;;;;;;;;;;;;;;-0.82;90.57;100931.44;5132091;27;19945;-66
2023/03/14 04:27:41;;;;;;;;;;;;;;;-0.82;91.11;100926.38;5132096;27;19934;-69
2023/03/14 04:30:07;;;;;;;;;;;;;;;-0.79;91.15;100925.75;5132138;27;20361;-71
2023/03/14 04:32:32;;;;;;;;;;;;;;;-0.76;90.77;100932.00;5132023;27;19957;-67
2023/03/14 04:34:57;;;;;;;;;;;;;;;-0.76;86.71;100941.22;5125127;28;19961;-69
2023/03/14 04:37:23;;;;;;;;;;;;;;;-0.80;83.84;100947.66;5114735;27;19920;-70
2023/03/14 04:39:48;;;;;;;;;;;;;;;-0.54;82.88;100941.50;5142622;27;19911;-70
2023/03/14 04:42:13;;;;;;;;;;;;;;;-0.40;82.27;100933.47;5132347;27;19916;-66
2023/03/14 04:44:38;;;;;;;;;;;;;;;-0.23;80.92;100936.59;5129636;27;19911;-66
2023/03/14 04:47:04;;;;;;;;;;;;;;;-0.25;79.92;100939.00;5132144;27;20372;-69
2023/03/14 04:49:29;;;;;;;;;;;;;;;-0.97;85.06;100933.50;5132007;28;19912;-66
2023/03/14 04:51:54;;;;;;;;;;;;;;;-1.47;90.51;100936.59;5131321;28;19964;-66
2023/03/14 04:54:19;;;;;;;;;;;;;;;-1.42;92.17;100931.97;5131821;28;19955;-66
2023/03/14 04:56:45;;;;;;;;;;;;;;;-1.31;92.56;100940.53;5131535;28;20007;-66
2023/03/14 04:59:10;;;;;;;;;;;;;;;-1.08;91.63;100936.69;5131784;28;19911;-67
2023/03/14 05:01:35;;;;;;;;;;;;;;;-0.87;89.08;100931.03;5131869;28;19911;-66
2023/03/14 05:04:01;;;;;;;;;;;;;;;-0.87;85.92;100931.03;5131876;28;19911;-74
2023/03/14 05:06:26;;;;;;;;;;;;;;;-0.74;85.46;100922.84;5131659;28;19951;-70
2023/03/14 05:08:51;;;;;;;;;;;;;;;-0.60;84.52;100929.16;5131584;28;20015;-67
2023/03/14 05:11:17;;;;;;;;;;;;;;;-0.42;83.64;100929.03;5136909;27;19977;-70
2023/03/14 05:13:42;;;;;;;;;;;;;;;-0.30;82.82;100926.66;5140798;27;20006;-70
2023/03/14 05:16:09;;;;;;;;;;;;;;;-0.25;82.27;100920.34;5141300;27;19937;-66
2023/03/14 05:18:34;;;;;;;;;;;;;;;-0.19;81.98;100923.41;5142724;27;20350;-72
2023/03/14 05:20:59;;;;;;;;;;;;;;;-0.04;81.45;100918.78;5140137;27;19953;-67
2023/03/14 05:23:25;;;;;;;;;;;;;;;0.06;80.78;100923.88;5141702;27;20419;-70
2023/03/14 05:25:50;;;;;;;;;;;;;;;0.14;80.55;100925.44;5139784;27;19916;-72
2023/03/14 05:28:16;;;;;;;;;;;;;;;-0.01;80.66;100935.16;5142817;27;19926;-69
2023/03/14 05:30:42;;;;;;;;;;;;;;;-0.07;82.40;100933.75;5144661;27;19973;-67
2023/03/14 05:33:07;;;;;;;;;;;;;;;-0.01;81.71;100941.91;5146561;27;19958;-70
2023/03/14 05:35:33;;;;;;;;;;;;;;;-0.54;83.84;100939.84;5144121;27;20428;-69
2023/03/14 05:37:58;;;;;;;;;;;;;;;-0.46;85.04;100935.47;5144650;27;19936;-69
2023/03/14 05:40:24;;;;;;;;;;;;;;;-0.19;83.59;100939.56;5146407;27;20021;-68
2023/03/14 05:42:49;;;;;;;;;;;;;;;-0.33;83.92;100937.44;5152849;27;20691;-67
2023/03/14 05:45:14;;;;;;;;;;;;;;;-0.19;84.42;100933.56;5156050;27;19915;-69
2023/03/14 05:47:40;;;;;;;;;;;;;;;0.04;83.74;100932.13;5155620;27;20009;-67
2023/03/14 05:50:05;;;;;;;;;;;;;;;0.26;83.46;100924.72;5155804;27;19918;-70
2023/03/14 05:52:31;;;;;;;;;;;;;;;0.45;82.79;100925.53;5155611;27;20394;-67
2023/03/14 05:54:56;;;;;;;;;;;;;;;0.62;82.59;100926.03;5156263;27;19918;-69
2023/03/14 05:57:21;;;;;;;;;;;;;;;0.84;82.43;100922.78;5155980;27;20441;-67
2023/03/14 05:59:46;;;;;;;;;;;;;;;1.04;82.75;100922.75;5155931;27;19987;-67
2023/03/14 06:02:12;;;;;;;;;;;;;;;1.22;82.26;100914.84;5137227;27;20300;-70
2023/03/14 06:04:37;;;;;;;;;;;;;;;1.47;82.25;100909.22;5155682;27;20014;-69
2023/03/14 06:07:02;;;;;;;;;;;;;;;1.52;82.55;100901.19;5155490;27;20381;-68
2023/03/14 06:09:27;;;;;;;;;;;;;;;1.66;83.45;100901.38;5155714;27;20010;-70
2023/03/14 06:11:53;;;;;;;;;;;;;;;1.85;82.92;100902.09;5152052;27;20299;-66
2023/03/14 06:14:18;;;;;;;;;;;;;;;1.91;82.91;100900.00;5134454;27;19915;-70
2023/03/14 06:16:44;;;;;;;;;;;;;;;2.06;83.15;100894.34;5136894;27;19923;-74
2023/03/14 06:19:09;;;;;;;;;;;;;;;2.05;81.92;100905.31;5132226;27;19972;-69
2023/03/14 06:21:34;;;;;;;;;;;;;;;2.09;82.90;100903.13;5142808;27;19963;-70
2023/03/14 06:23:59;;;;;;;;;;;;;;;2.05;82.82;100896.00;5142293;27;19918;-69
2023/03/14 06:26:25;;;;;;;;;;;;;;;1.73;84.47;100903.66;5142409;27;20423;-70
2023/03/14 06:28:50;;;;;;;;;;;;;;;1.63;85.78;100891.84;5147045;27;19958;-69
2023/03/14 06:31:16;;;;;;;;;;;;;;;1.69;86.79;100892.34;5148504;27;19976;-66
2023/03/14 06:33:41;;;;;;;;;;;;;;;1.81;87.55;100896.63;5154401;27;19919;-65
2023/03/14 06:36:07;;;;;;;;;;;;;;;1.95;86.64;100908.78;5154853;27;20384;-69
2023/03/14 06:38:32;;;;;;;;;;;;;;;1.61;87.85;100906.13;5154581;27;19915;-67
2023/03/14 06:41:02;;;;;;;;;;;;;;;1.58;89.35;100901.69;5153956;27;20293;-73
2023/03/14 06:43:27;;;;;;;;;;;;;;;1.61;88.66;100901.03;5136046;27;20360;-67
2023/03/14 06:45:53;;;;;;;;;;;;;;;1.94;87.51;100901.91;5154748;27;19915;-68
2023/03/14 06:48:18;;;;;;;;;;;;;;;2.38;85.89;100908.66;5154068;27;19986;-67
2023/03/14 06:50:44;;;;;;;;;;;;;;;2.33;84.10;100904.88;5154167;27;19926;-69
2023/03/14 06:53:09;;;;;;;;;;;;;;;2.42;83.63;100893.75;5154288;27;19940;-69
2023/03/14 06:55:34;;;;;;;;;;;;;;;2.28;83.78;100904.56;5154652;27;19918;-70
2023/03/14 06:57:59;;;;;;;;;;;;;;;2.36;84.25;100900.91;5154388;27;19911;-66
2023/03/14 07:00:26;;;;;;;;;;;;;;;2.26;83.41;100901.88;5154350;27;19940;-72
2023/03/14 07:02:51;;;;;;;;;;;;;;;2.51;83.69;100901.19;5146344;27;19934;-70
2023/03/14 07:05:16;;;;;;;;;;;;;;;2.52;83.40;100899.56;5133492;27;19920;-70
2023/03/14 07:07:41;;;;;;;;;;;;;;;2.63;82.33;100896.16;5133022;27;19915;-70
2023/03/14 07:10:08;;;;;;;;;;;;;;;2.74;81.03;100902.03;5133436;27;20332;-72
2023/03/14 07:12:34;;;;;;;;;;;;;;;3.11;80.60;100892.03;5132756;27;19911;-68
2023/03/14 07:14:59;;;;;;;;;;;;;;;3.17;80.02;100895.03;5133314;27;19917;-69
2023/03/14 07:17:24;;;;;;;;;;;;;;;3.18;79.35;100894.28;5114302;27;19947;-68
2023/03/14 07:19:50;;;;;;;;;;;;;;;3.31;79.55;100884.97;5114806;27;19915;-71
2023/03/14 07:22:15;;;;;;;;;;;;;;;3.61;78.71;100883.72;5133192;27;19972;-71
2023/03/14 07:24:40;;;;;;;;;;;;;;;3.70;77.66;100884.41;5133265;27;20366;-71
2023/03/14 07:27:05;;;;;;;;;;;;;;;3.73;77.98;100892.25;5133558;27;19915;-68
2023/03/14 07:29:31;;;;;;;;;;;;;;;3.82;78.15;100888.59;5114437;27;20377;-66
2023/03/14 07:31:56;;;;;;;;;;;;;;;4.18;77.74;100891.97;5133185;27;19915;-66
2023/03/14 07:34:21;;;;;;;;;;;;;;;4.49;77.05;100888.97;5132727;27;19963;-71
2023/03/14 07:36:46;;;;;;;;;;;;;;;4.67;76.67;100876.50;5133089;27;20357;-67
2023/03/14 07:39:12;;;;;;;;;;;;;;;4.99;76.22;100873.53;5132634;27;19911;-71
2023/03/14 07:41:37;;;;;;;;;;;;;;;5.31;75.61;100867.06;5132687;27;19918;-70
2023/03/14 07:44:02;;;;;;;;;;;;;;;5.54;74.79;100871.91;5132625;27;20326;-70
2023/03/14 07:46:27;;;;;;;;;;;;;;;5.86;73.23;100871.38;5132768;27;19911;-67
2023/03/14 07:48:53;;;;;;;;;;;;;;;5.97;73.46;100870.34;5132844;27;19911;-69
2023/03/14 07:51:18;;;;;;;;;;;;;;;6.01;73.51;100857.75;5132684;27;19911;-71
2023/03/14 07:53:43;;;;;;;;;;;;;;;6.10;73.50;100855.75;5132313;27;19911;-69
2023/03/14 07:56:09;;;;;;;;;;;;;;;6.31;74.15;100851.94;5132540;27;19915;-69
2023/03/14 07:58:34;;;;;;;;;;;;;;;6.42;73.82;100846.59;5132882;27;19915;-65
2023/03/14 08:00:59;;;;;;;;;;;;;;;6.37;73.21;100841.16;5132680;27;19968;-65
2023/03/14 08:03:24;;;;;;;;;;;;;;;6.42;72.98;100833.75;5132221;27;19969;-69
2023/03/14 08:05:50;;;;;;;;;;;;;;;6.24;74.47;100834.44;5132461;27;19911;-65
2023/03/14 08:08:16;;;;;;;;;;;;;;;6.26;74.03;100829.38;5132250;27;19911;-70
2023/03/14 08:10:41;;;;;;;;;;;;;;;6.53;72.41;100826.69;5131855;27;20556;-69
2023/03/14 08:13:06;;;;;;;;;;;;;;;6.56;70.52;100829.44;5132497;27;20383;-69
2023/03/14 08:15:31;;;;;;;;;;;;;;;6.54;69.69;100826.78;5131970;27;19907;-69
2023/03/14 08:17:57;;;;;;;;;;;;;;;6.55;70.56;100830.22;5131957;27;19958;-66
2023/03/14 08:20:26;;;;;;;;;;;;;;;6.76;70.25;100820.34;5113807;27;19923;-65
2023/03/14 08:22:51;;;;;;;;;;;;;;;6.83;67.55;100819.00;5132247;27;19907;-69
2023/03/14 08:25:17;;;;;;;;;;;;;;;6.72;69.63;100818.41;5132104;27;20338;-67
2023/03/14 08:27:43;;;;;;;;;;;;;;;6.89;65.59;100816.78;5132620;27;19907;-67
2023/03/14 08:30:10;;;;;;;;;;;;;;;6.94;63.64;100811.13;5131990;27;19966;-70
2023/03/14 08:32:35;;;;;;;;;;;;;;;7.20;64.50;100811.72;5131853;27;19916;-69
2023/03/14 08:35:01;;;;;;;;;;;;;;;7.39;66.92;100803.34;5132018;27;19911;-68
2023/03/14 08:37:27;;;;;;;;;;;;;;;7.32;66.22;100795.22;5132126;28;19907;-68
2023/03/14 08:39:52;;;;;;;;;;;;;;;7.49;64.56;100794.47;5131653;28;20015;-68
2023/03/14 08:42:17;;;;;;;;;;;;;;;7.64;64.11;100784.13;5132126;28;19907;-65
2023/03/14 08:44:43;;;;;;;;;;;;;;;7.82;63.25;100789.38;5132263;28;20039;-66
2023/03/14 08:47:08;;;;;;;;;;;;;;;8.05;61.71;100776.81;5132084;28;19907;-69
2023/03/14 08:49:33;;;;;;;;;;;;;;;8.17;60.06;100777.47;5131605;28;19998;-67
2023/03/14 08:52:00;;;;;;;;;;;;;;;8.29;59.38;100779.78;5131881;28;19918;-66
2023/03/14 08:54:26;;;;;;;;;;;;;;;8.22;58.23;100772.56;5132005;28;19958;-72
2023/03/14 08:56:51;;;;;;;;;;;;;;;8.43;56.48;100771.06;5137239;27;19994;-69
2023/03/14 08:59:17;;;;;;;;;;;;;;;8.54;56.28;100763.06;5141238;27;20296;-71
2023/03/14 09:01:43;;;;;;;;;;;;;;;8.69;56.47;100765.50;5141368;27;20009;-70
2023/03/14 09:04:09;;;;;;;;;;;;;;;8.83;56.28;100756.75;5144554;27;20031;-69
2023/03/14 09:06:35;;;;;;;;;;;;;;;8.87;54.26;100750.97;5144973;27;19912;-66
2023/03/14 09:09:01;;;;;;;;;;;;;;;8.89;53.82;100746.75;5151296;27;19918;-66
2023/03/14 09:11:26;;;;;;;;;;;;;;;9.00;48.95;100738.69;5146317;27;19918;-69
2023/03/14 09:13:51;;;;;;;;;;;;;;;8.87;41.48;100727.78;5144315;27;19915;-65
2023/03/14 09:16:17;;;;;;;;;;;;;;;8.84;44.52;100725.06;5145622;27;20424;-69
2023/03/14 09:18:42;;;;;;;;;;;;;;;9.08;40.67;100716.72;5123858;27;20002;-65
2023/03/14 09:21:07;;;;;;;;;;;;;;;9.10;32.85;100707.41;5126851;27;19911;-67
2023/03/14 09:23:33;;;;;;;;;;;;;;;9.18;32.46;100705.16;5123855;27;20384;-68
2023/03/14 09:25:58;;;;;;;;;;;;;;;9.36;38.36;100702.56;5121516;27;19912;-69
2023/03/14 09:28:24;;;;;;;;;;;;;;;9.40;36.45;100694.16;5122733;27;19998;-69
2023/03/14 09:30:49;;;;;;;;;;;;;;;9.55;38.74;100692.25;5144790;27;19966;-69
2023/03/14 09:33:15;;;;;;;;;;;;;;;9.67;41.38;100688.44;5144223;27;20345;-66
2023/03/14 09:35:40;;;;;;;;;;;;;;;9.76;42.38;100683.72;5146243;27;19911;-67
2023/03/14 09:38:06;;;;;;;;;;;;;;;9.88;40.83;100681.66;5145382;27;20294;-69
2023/03/14 09:40:34;;;;;;;;;;;;;;;9.95;40.34;100671.63;5144300;27;20292;-65
2023/03/14 09:42:59;;;;;;;;;;;;;;;10.10;43.83;100673.97;5141609;27;19916;-66
2023/03/14 09:45:31;;;;;;;;;;;;;;;10.33;42.25;100673.22;5145156;27;20304;-67
2023/03/14 09:47:57;;;;;;;;;;;;;;;10.44;40.24;100670.22;5145797;27;19922;-69
2023/03/14 09:50:23;;;;;;;;;;;;;;;10.47;39.58;100663.50;5145570;27;19930;-66
2023/03/14 09:52:52;;;;;;;;;;;;;;;10.75;36.47;100656.84;5126478;27;19980;-67
2023/03/14 09:55:21;;;;;;;;;;;;;;;10.86;33.66;100654.69;5143243;27;19922;-67
2023/03/14 09:57:48;;;;;;;;;;;;;;;10.96;41.21;100645.59;5133097;27;20442;-70
2023/03/14 10:00:21;;;;;;;;;;;;;;;10.94;40.17;100640.38;5123236;27;19918;-67
2023/03/14 10:02:52;;;;;;;;;;;;;;;11.08;40.65;100630.56;5124296;27;19940;-69
2023/03/14 10:05:20;;;;;;;;;;;;;;;11.12;40.66;100631.53;5116691;27;19930;-65
2023/03/14 10:07:45;;;;;;;;;;;;;;;11.17;41.19;100622.25;5118913;27;20308;-67
2023/03/14 10:10:13;;;;;;;;;;;;;;;11.17;43.10;100625.72;5122204;27;19915;-66
2023/03/14 10:12:44;;;;;;;;;;;;;;;11.05;44.95;100614.91;5124177;27;20319;-66
2023/03/14 10:15:10;;;;;;;;;;;;;;;11.30;45.33;100605.47;5114122;27;19918;-68
2023/03/14 10:17:43;;;;;;;;;;;;;;;11.37;43.15;100610.06;5107114;27;20266;-69
2023/03/14 10:20:32;;;;;;;;;;;;;;;11.33;42.82;100601.31;5131721;27;19911;-65
2023/03/14 10:23:03;;;;;;;;;;;;;;;11.48;43.46;100600.97;5114731;27;19964;-68
2023/03/14 10:25:30;;;;;;;;;;;;;;;11.49;43.18;100591.53;5115894;27;19923;-65
2023/03/14 10:27:55;;;;;;;;;;;;;;;11.65;43.76;100585.16;5134059;27;20284;-65
2023/03/14 10:30:53;;;;;;;;;;;;;;;11.81;42.94;100583.97;5133680;27;19915;-70
2023/03/14 10:33:18;;;;;;;;;;;;;;;11.92;41.97;100584.34;5069689;28;19923;-72
2023/03/14 10:35:44;;;;;;;;;;;;;;;12.22;41.09;100581.91;5070074;28;19917;-66
2023/03/14 10:38:13;;;;;;;;;;;;;;;12.54;41.03;100570.81;5069833;28;19950;-66
2023/03/14 10:40:39;;;;;;;;;;;;;;;12.77;40.40;100566.31;5069137;28;20368;-66
2023/03/14 10:43:06;;;;;;;;;;;;;;;13.02;40.33;100551.47;5067431;28;19951;-70
2023/03/14 10:45:32;;;;;;;;;;;;;;;13.16;39.04;100546.66;5067649;28;19919;-65
2023/03/14 10:47:59;;;;;;;;;;;;;;;13.36;38.44;100542.91;5067007;28;19916;-72
2023/03/14 10:50:26;;;;;;;;;;;;;;;13.52;38.40;100539.06;5067253;28;19962;-69
2023/03/14 10:52:53;;;;;;;;;;;;;;;13.45;36.80;100526.75;5066809;28;20381;-66
2023/03/14 10:55:18;;;;;;;;;;;;;;;13.31;34.92;100513.41;5050155;28;20418;-69
2023/03/14 10:57:44;;;;;;;;;;;;;;;13.50;37.28;100513.91;5067421;28;19908;-67
2023/03/14 11:00:19;;;;;;;;;;;;;;;13.73;37.24;100505.00;5067557;28;19919;-70
2023/03/14 11:02:53;;;;;;;;;;;;;;;13.94;37.27;100490.75;5069216;28;20375;-70
2023/03/14 11:05:25;;;;;;;;;;;;;;;14.12;36.21;100484.22;5068701;28;19969;-66
2023/03/14 11:07:51;;;;;;;;;;;;;;;14.21;35.83;100479.25;5065738;28;19920;-66
2023/03/14 11:10:32;;;;;;;;;;;;;;;14.16;34.46;100471.38;5115610;27;19922;-68
2023/03/14 11:13:02;;;;;;;;;;;;;;;13.98;34.61;100457.97;5125374;27;20376;-69
2023/03/14 11:15:47;;;;;;;;;;;;;;;13.82;35.38;100452.44;5131561;27;19911;-68
2023/03/14 11:18:31;;;;;;;;;;;;;;;13.96;35.03;100442.38;5060056;28;19977;-69
2023/03/14 11:21:00;;;;;;;;;;;;;;;14.14;33.75;100435.81;5035390;28;19946;-70
2023/03/14 11:23:36;;;;;;;;;;;;;;;13.56;34.65;100423.28;5061772;28;20009;-68
2023/03/14 11:26:18;;;;;;;;;;;;;;;13.59;35.33;100412.97;5060291;28;19939;-71
2023/03/14 11:28:48;;;;;;;;;;;;;;;13.65;34.87;100404.47;5065716;28;20345;-67
2023/03/14 11:31:27;;;;;;;;;;;;;;;13.96;36.04;100398.25;5065876;28;19916;-67
2023/03/14 11:34:00;;;;;;;;;;;;;;;13.71;33.80;100389.03;5032806;28;20015;-67
2023/03/14 11:36:39;;;;;;;;;;;;;;;13.79;37.09;100386.63;5066498;28;19956;-67
2023/03/14 11:39:12;;;;;;;;;;;;;;;14.19;35.24;100384.88;5066105;28;19920;-68
2023/03/14 11:41:39;;;;;;;;;;;;;;;14.44;34.26;100382.78;5066487;28;20388;-66
2023/03/14 11:44:14;;;;;;;;;;;;;;;14.62;33.17;100382.28;5065954;28;19927;-70
2023/03/14 11:46:43;;;;;;;;;;;;;;;14.61;33.85;100371.00;5066594;28;19913;-66
2023/03/14 11:49:31;;;;;;;;;;;;;;;14.72;33.05;100359.09;5066309;28;19950;-69
2023/03/14 11:51:59;;;;;;;;;;;;;;;14.75;33.10;100354.81;5046374;28;19920;-65
2023/03/14 11:54:24;;;;;;;;;;;;;;;14.99;35.32;100352.66;5049816;28;20023;-69
2023/03/14 11:56:50;;;;;;;;;;;;;;;15.17;34.71;100335.59;5065366;28;20011;-68
2023/03/14 11:59:21;;;;;;;;;;;;;;;14.95;34.42;100340.44;5066080;28;20023;-68
2023/03/14 12:01:52;;;;;;;;;;;;;;;14.99;34.48;100323.16;5065965;28;19931;-69
2023/03/14 12:04:36;;;;;;;;;;;;;;;15.26;35.52;100325.31;5065888;28;19920;-68
2023/03/14 12:07:07;;;;;;;;;;;;;;;15.33;35.84;100319.38;5074235;28;19958;-70
2023/03/14 12:09:33;;;;;;;;;;;;;;;15.42;35.06;100304.78;5068106;28;19920;-66
2023/03/14 12:12:02;;;;;;;;;;;;;;;15.52;36.28;100306.63;5075061;28;19955;-68
2023/03/14 12:14:35;;;;;;;;;;;;;;;15.59;33.20;100298.06;5087704;28;19912;-70
2023/03/14 12:17:09;;;;;;;;;;;;;;;15.77;32.24;100296.56;5087859;28;19911;-69
2023/03/14 12:19:35;;;;;;;;;;;;;;;15.77;33.12;100291.34;5075837;28;19912;-67
2023/03/14 12:22:01;;;;;;;;;;;;;;;15.79;34.13;100282.72;5034675;28;19917;-68
2023/03/14 12:24:28;;;;;;;;;;;;;;;15.77;32.81;100274.00;5031145;28;20382;-65
2023/03/14 12:26:54;;;;;;;;;;;;;;;15.90;33.11;100277.69;5034511;28;19994;-67
2023/03/14 12:29:20;;;;;;;;;;;;;;;15.75;31.63;100272.22;5074050;28;19916;-69
2023/03/14 12:31:46;;;;;;;;;;;;;;;15.93;32.14;100271.63;5087917;28;19922;-66
2023/03/14 12:34:12;;;;;;;;;;;;;;;15.91;32.41;100268.97;5080243;28;19916;-67
2023/03/14 12:36:49;;;;;;;;;;;;;;;15.90;33.33;100261.16;5081557;28;19912;-66
2023/03/14 12:39:17;;;;;;;;;;;;;;;15.89;31.34;100259.41;5087505;28;19923;-71
2023/03/14 12:41:45;;;;;;;;;;;;;;;15.82;32.98;100251.53;5087911;28;19943;-65